createdAt,value
2022-12-01T00:01:07.382Z,34.63
2022-12-01T00:03:35.342Z,33.03
2022-12-01T00:06:03.575Z,33.50
2022-12-01T00:08:30.906Z,32.03
2022-12-01T00:11:05.141Z,33.40
2022-12-01T00:13:32.663Z,34.30
2022-12-01T00:16:10.173Z,34.00
2022-12-01T00:18:37.490Z,32.70
2022-12-01T00:21:04.950Z,34.95
2022-12-01T00:23:32.287Z,35.00
2022-12-01T00:26:04.795Z,33.78
2022-12-01T00:28:32.152Z,34.95
2022-12-01T00:31:00.168Z,34.70
2022-12-01T00:33:27.494Z,34.28
2022-12-01T00:36:01.583Z,35.00
2022-12-01T00:38:28.926Z,24.60
2022-12-01T00:40:56.173Z,35.72
2022-12-01T00:43:24.238Z,34.03
2022-12-01T00:45:51.697Z,35.45
2022-12-01T00:48:20.082Z,34.17
2022-12-01T00:50:47.410Z,36.60
2022-12-01T00:53:14.731Z,35.78
2022-12-01T00:55:42.062Z,37.17
2022-12-01T00:58:09.905Z,35.95
2022-12-01T01:00:40.046Z,37.38
2022-12-01T01:03:07.551Z,35.33
2022-12-01T01:05:38.582Z,35.20
2022-12-01T01:08:13.398Z,35.15
2022-12-01T01:10:41.752Z,35.25
2022-12-01T01:13:09.163Z,35.15
2022-12-01T01:15:36.498Z,35.58
2022-12-01T01:18:04.102Z,36.90
2022-12-01T01:20:31.465Z,37.30
2022-12-01T01:22:58.972Z,37.00
2022-12-01T01:25:26.298Z,35.00
2022-12-01T01:27:53.608Z,35.42
2022-12-01T01:30:21.011Z,34.60
2022-12-01T01:32:48.494Z,34.47
2022-12-01T01:35:15.853Z,34.58
2022-12-01T01:37:43.209Z,32.25
2022-12-01T01:40:11.372Z,32.08
2022-12-01T01:42:38.677Z,32.65
2022-12-01T01:45:29.929Z,31.20
2022-12-01T01:47:57.887Z,29.48
2022-12-01T01:50:26.451Z,31.50
2022-12-01T01:53:02.465Z,29.80
2022-12-01T01:55:30.274Z,28.52
2022-12-01T01:57:57.560Z,29.38
2022-12-01T02:00:24.909Z,28.33
2022-12-01T02:02:53.148Z,30.08
2022-12-01T02:05:22.682Z,30.10
2022-12-01T02:07:51.291Z,29.95
2022-12-01T02:10:22.666Z,29.80
2022-12-01T02:12:54.089Z,30.13
2022-12-01T02:15:37.144Z,30.27
2022-12-01T02:18:25.481Z,30.77
2022-12-01T02:21:00.942Z,30.08
2022-12-01T02:23:52.294Z,30.17
2022-12-01T02:26:28.430Z,31.17
2022-12-01T02:29:29.529Z,31.52
2022-12-01T02:32:12.897Z,32.75
2022-12-01T02:34:49.014Z,32.83
2022-12-01T02:37:23.938Z,33.03
2022-12-01T02:40:14.347Z,32.40
2022-12-01T02:42:51.704Z,33.42
2022-12-01T02:45:40.588Z,34.97
2022-12-01T02:48:11.739Z,34.22
2022-12-01T02:50:39.166Z,35.63
2022-12-01T02:53:07.637Z,33.25
2022-12-01T02:55:35.095Z,34.40
2022-12-01T02:58:02.375Z,34.22
2022-12-01T03:00:30.567Z,36.33
2022-12-01T03:03:29.142Z,35.78
2022-12-01T03:06:03.304Z,35.60
2022-12-01T03:08:48.182Z,35.50
2022-12-01T03:11:27.201Z,37.00
2022-12-01T03:14:19.157Z,35.50
2022-12-01T03:16:48.203Z,35.78
2022-12-01T03:19:40.367Z,37.65
2022-12-01T03:22:11.062Z,37.00
2022-12-01T03:24:38.694Z,34.35
2022-12-01T03:27:06.022Z,35.55
2022-12-01T03:29:39.899Z,34.42
2022-12-01T03:32:12.921Z,36.50
2022-12-01T03:35:08.783Z,35.28
2022-12-01T03:38:06.093Z,35.28
2022-12-01T03:40:33.380Z,35.50
2022-12-01T03:43:07.448Z,38.05
2022-12-01T03:45:57.148Z,36.13
2022-12-01T03:48:24.498Z,35.03
2022-12-01T03:51:13.920Z,35.42
2022-12-01T03:54:13.211Z,34.03
2022-12-01T03:56:44.814Z,32.58
2022-12-01T03:59:12.125Z,35.03
2022-12-01T04:01:39.457Z,34.22
2022-12-01T04:04:08.198Z,34.67
2022-12-01T04:06:35.634Z,32.38
2022-12-01T04:09:03.284Z,33.38
2022-12-01T04:11:49.479Z,35.72
2022-12-01T04:14:16.796Z,35.88
2022-12-01T04:16:44.053Z,35.97
2022-12-01T04:19:11.589Z,36.75
2022-12-01T04:21:38.870Z,35.40
2022-12-01T04:24:06.454Z,37.22
2022-12-01T04:26:35.459Z,37.58
2022-12-01T04:29:04.189Z,36.50
2022-12-01T04:31:31.540Z,38.28
2022-12-01T04:33:58.990Z,36.92
2022-12-01T04:36:26.341Z,38.85
2022-12-01T04:38:53.742Z,37.33
2022-12-01T04:41:21.085Z,34.63
2022-12-01T04:43:48.392Z,35.15
2022-12-01T04:46:15.770Z,36.53
2022-12-01T04:48:43.520Z,36.00
2022-12-01T04:51:10.839Z,35.90
2022-12-01T04:53:38.175Z,34.70
2022-12-01T04:56:05.700Z,35.45
2022-12-01T04:58:33.554Z,34.53
2022-12-01T05:01:05.442Z,34.33
2022-12-01T05:03:35.564Z,34.17
2022-12-01T05:06:07.808Z,36.03
2022-12-01T05:08:35.115Z,33.55
2022-12-01T05:11:02.497Z,34.30
2022-12-01T05:13:29.772Z,34.42
2022-12-01T05:16:14.287Z,36.45
2022-12-01T05:18:41.810Z,32.67
2022-12-01T05:21:09.999Z,36.00
2022-12-01T05:23:37.733Z,33.78
2022-12-01T05:26:06.155Z,34.00
2022-12-01T05:28:33.526Z,32.80
2022-12-01T05:31:01.050Z,33.55
2022-12-01T05:33:28.790Z,33.60
2022-12-01T05:35:56.060Z,33.47
2022-12-01T05:38:23.393Z,34.53
2022-12-01T05:40:52.360Z,33.17
2022-12-01T05:43:24.003Z,34.40
2022-12-01T05:45:55.966Z,32.90
2022-12-01T05:48:23.338Z,33.53
2022-12-01T05:50:50.645Z,32.70
2022-12-01T05:53:18.434Z,34.08
2022-12-01T05:55:45.785Z,32.60
2022-12-01T05:58:13.166Z,33.72
2022-12-01T06:00:45.596Z,30.95
2022-12-01T06:03:13.633Z,32.88
2022-12-01T06:05:41.063Z,32.40
2022-12-01T06:08:08.475Z,32.72
2022-12-01T06:10:35.746Z,33.80
2022-12-01T06:13:03.017Z,34.70
2022-12-01T06:15:30.325Z,35.40
2022-12-01T06:18:00.624Z,34.22
2022-12-01T06:20:28.029Z,35.33
2022-12-01T06:22:55.295Z,34.90
2022-12-01T06:25:22.669Z,35.63
2022-12-01T06:27:49.935Z,37.10
2022-12-01T06:30:17.393Z,35.20
2022-12-01T06:32:44.680Z,33.03
2022-12-01T06:35:12.697Z,35.67
2022-12-01T06:37:40.003Z,34.55
2022-12-01T06:40:07.869Z,34.22
2022-12-01T06:42:35.263Z,33.55
2022-12-01T06:45:02.773Z,35.20
2022-12-01T06:47:30.078Z,34.33
2022-12-01T06:49:57.571Z,34.15
2022-12-01T06:52:24.867Z,35.67
2022-12-01T06:54:52.212Z,33.33
2022-12-01T06:57:19.789Z,34.58
2022-12-01T06:59:47.974Z,32.67
2022-12-01T07:02:17.000Z,34.20
2022-12-01T07:04:44.376Z,34.28
2022-12-01T07:07:12.221Z,33.95
2022-12-01T07:09:39.649Z,34.03
2022-12-01T07:12:07.115Z,33.92
2022-12-01T07:14:34.580Z,32.15
2022-12-01T07:17:01.967Z,32.85
2022-12-01T07:19:29.433Z,30.23
2022-12-01T07:21:56.828Z,33.47
2022-12-01T07:24:24.130Z,31.05
2022-12-01T07:26:51.495Z,33.15
2022-12-01T07:29:18.908Z,32.55
2022-12-01T07:31:46.221Z,33.60
2022-12-01T07:34:13.617Z,31.73
2022-12-01T07:36:40.907Z,32.65
2022-12-01T07:39:08.367Z,34.53
2022-12-01T07:41:35.778Z,33.72
2022-12-01T07:44:03.124Z,32.65
2022-12-01T07:46:30.487Z,33.75
2022-12-01T07:48:58.014Z,32.85
2022-12-01T07:51:25.586Z,33.28
2022-12-01T07:53:53.623Z,32.85
2022-12-01T07:56:21.300Z,31.10
2022-12-01T07:58:48.783Z,30.77
2022-12-01T08:01:18.129Z,31.13
2022-12-01T08:03:45.573Z,32.47
2022-12-01T08:06:12.872Z,30.60
2022-12-01T08:08:40.866Z,31.25
2022-12-01T08:11:12.392Z,34.40
2022-12-01T08:13:40.189Z,31.27
2022-12-01T08:16:08.627Z,31.77
2022-12-01T08:18:36.621Z,33.13
2022-12-01T08:21:04.633Z,32.67
2022-12-01T08:23:32.697Z,30.50
2022-12-01T08:26:08.281Z,33.05
2022-12-01T08:28:36.291Z,30.23
2022-12-01T08:31:16.583Z,33.97
2022-12-01T08:33:44.004Z,32.40
2022-12-01T08:36:11.356Z,33.05
2022-12-01T08:38:38.706Z,31.88
2022-12-01T08:41:08.087Z,31.15
2022-12-01T08:46:34.353Z,31.48
2022-12-01T08:49:02.220Z,32.95
2022-12-01T08:51:29.544Z,31.30
2022-12-01T08:53:57.571Z,30.35
2022-12-01T08:56:30.607Z,30.42
2022-12-01T08:58:58.169Z,31.17
2022-12-01T09:01:28.215Z,29.27
2022-12-01T09:04:06.175Z,29.92
2022-12-01T09:06:40.204Z,29.02
2022-12-01T09:09:08.845Z,29.23
2022-12-01T09:11:36.228Z,29.95
2022-12-01T09:14:03.706Z,28.70
2022-12-01T09:16:31.267Z,29.05
2022-12-01T09:18:58.633Z,31.45
2022-12-01T09:21:27.449Z,30.77
2022-12-01T09:23:54.749Z,29.15
2022-12-01T09:26:22.325Z,27.10
2022-12-01T09:28:52.448Z,29.50
2022-12-01T09:31:20.801Z,27.35
2022-12-01T09:33:48.114Z,26.77
2022-12-01T09:36:15.463Z,28.42
2022-12-01T09:38:42.762Z,27.23
2022-12-01T09:41:20.972Z,27.85
2022-12-01T09:43:56.861Z,26.55
2022-12-01T09:46:26.768Z,25.92
2022-12-01T09:48:54.421Z,26.83
2022-12-01T09:51:22.811Z,28.77
2022-12-01T09:53:58.659Z,28.48
2022-12-01T09:56:30.286Z,28.08
2022-12-01T09:59:01.987Z,29.17
2022-12-01T10:01:34.534Z,26.30
2022-12-01T10:04:09.885Z,27.95
2022-12-01T10:06:47.024Z,28.05
2022-12-01T10:09:38.133Z,26.95
2022-12-01T10:12:14.793Z,25.50
2022-12-01T10:14:47.084Z,25.42
2022-12-01T10:17:49.702Z,26.52
2022-12-01T10:20:31.775Z,27.35
2022-12-01T10:23:11.331Z,27.08
2022-12-01T10:25:54.175Z,27.10
2022-12-01T10:28:35.076Z,26.30
2022-12-01T10:31:09.775Z,27.95
2022-12-01T10:36:09.051Z,26.35
2022-12-01T10:38:37.074Z,25.65
2022-12-01T10:41:05.621Z,26.45
2022-12-01T10:43:37.188Z,27.20
2022-12-01T10:46:21.640Z,25.73
2022-12-01T10:48:59.627Z,25.02
2022-12-01T10:51:27.594Z,25.52
2022-12-01T10:54:06.630Z,23.00
2022-12-01T10:56:33.936Z,24.70
2022-12-01T10:59:04.167Z,24.05
2022-12-01T11:01:34.723Z,23.77
2022-12-01T11:04:07.536Z,25.60
2022-12-01T11:06:36.030Z,24.00
2022-12-01T11:09:05.686Z,23.67
2022-12-01T11:11:34.971Z,23.58
2022-12-01T11:14:05.431Z,23.17
2022-12-01T11:16:44.339Z,23.25
2022-12-01T11:19:28.663Z,25.10
2022-12-01T11:21:58.166Z,17.73
2022-12-01T11:24:44.483Z,23.20
2022-12-01T11:27:17.718Z,23.00
2022-12-01T11:29:46.512Z,24.75
2022-12-01T11:32:35.414Z,22.73
2022-12-01T11:35:19.392Z,21.95
2022-12-01T11:38:13.142Z,24.50
2022-12-01T11:40:52.960Z,23.08
2022-12-01T11:43:34.624Z,22.83
2022-12-01T11:46:06.544Z,23.45
2022-12-01T11:48:35.292Z,24.17
2022-12-01T11:51:07.258Z,23.40
2022-12-01T11:53:41.984Z,23.52
2022-12-01T11:58:44.504Z,23.50
2022-12-01T12:01:32.992Z,22.85
2022-12-01T12:04:09.131Z,22.75
2022-12-01T12:06:46.257Z,22.77
2022-12-01T12:09:17.259Z,21.75
2022-12-01T12:12:08.249Z,22.08
2022-12-01T12:14:38.302Z,23.75
2022-12-01T12:17:20.125Z,23.38
2022-12-01T12:20:12.312Z,23.35
2022-12-01T12:22:55.031Z,23.40
2022-12-01T12:25:34.383Z,23.20
2022-12-01T12:28:25.554Z,23.40
2022-12-01T12:31:14.419Z,23.40
2022-12-01T12:33:53.107Z,22.38
2022-12-01T12:36:35.850Z,22.23
2022-12-01T12:39:29.611Z,22.50
2022-12-01T12:41:57.228Z,24.27
2022-12-01T12:44:42.553Z,22.48
2022-12-01T12:48:02.227Z,22.45
2022-12-01T12:50:44.804Z,21.63
2022-12-01T12:53:35.098Z,23.75
2022-12-01T12:56:04.510Z,22.02
2022-12-01T12:58:36.775Z,24.48
2022-12-01T13:01:16.537Z,22.85
2022-12-01T13:04:18.898Z,24.30
2022-12-01T13:06:47.708Z,23.75
2022-12-01T13:09:37.667Z,25.65
2022-12-01T13:12:09.377Z,24.63
2022-12-01T13:14:39.895Z,24.95
2022-12-01T13:17:26.723Z,26.08
2022-12-01T13:19:53.914Z,25.33
2022-12-01T13:22:24.118Z,24.23
2022-12-01T13:24:51.301Z,25.27
2022-12-01T13:27:20.470Z,24.75
2022-12-01T13:29:50.083Z,23.75
2022-12-01T13:32:28.223Z,23.27
2022-12-01T13:34:55.406Z,22.98
2022-12-01T13:37:36.883Z,24.33
2022-12-01T13:40:27.331Z,24.05
2022-12-01T13:43:05.461Z,22.88
2022-12-01T13:45:37.126Z,25.10
2022-12-01T13:48:05.151Z,24.92
2022-12-01T13:50:45.809Z,24.75
2022-12-01T13:53:19.329Z,23.98
2022-12-01T13:56:03.514Z,24.65
2022-12-01T13:58:33.754Z,23.95
2022-12-01T14:01:20.214Z,24.90
2022-12-01T14:04:02.912Z,26.83
2022-12-01T14:06:36.068Z,24.23
2022-12-01T14:09:25.917Z,24.67
2022-12-01T14:12:01.245Z,25.58
2022-12-01T14:14:33.061Z,25.88
2022-12-01T14:17:02.519Z,24.80
2022-12-01T14:19:47.365Z,26.02
2022-12-01T14:22:34.441Z,26.98
2022-12-01T14:25:01.781Z,25.00
2022-12-01T14:27:40.672Z,26.88
2022-12-01T14:30:39.019Z,24.85
2022-12-01T14:33:39.845Z,24.33
2022-12-01T14:36:25.399Z,24.50
2022-12-01T14:38:58.853Z,26.35
2022-12-01T14:41:30.091Z,24.92
2022-12-01T14:44:10.765Z,23.45
2022-12-01T14:47:09.675Z,24.98
2022-12-01T14:49:58.363Z,25.13
2022-12-01T14:52:38.541Z,24.38
2022-12-01T14:55:13.006Z,23.40
2022-12-01T14:57:42.126Z,26.90
2022-12-01T15:00:20.602Z,24.70
2022-12-01T15:02:56.715Z,25.88
2022-12-01T15:07:58.834Z,24.35
2022-12-01T15:10:37.566Z,24.50
2022-12-01T15:13:24.736Z,22.83
2022-12-01T15:15:53.684Z,22.85
2022-12-01T15:18:27.661Z,23.63
2022-12-01T15:21:14.147Z,24.65
2022-12-01T15:24:04.402Z,23.35
2022-12-01T15:26:46.389Z,24.42
2022-12-01T15:29:28.113Z,23.85
2022-12-01T15:31:56.242Z,23.40
2022-12-01T15:34:37.519Z,22.52
2022-12-01T15:37:06.947Z,23.67
2022-12-01T15:39:44.942Z,30.35
2022-12-01T15:42:23.417Z,26.23
2022-12-01T15:45:02.470Z,23.08
2022-12-01T15:47:56.361Z,23.48
2022-12-01T15:50:46.000Z,32.45
2022-12-01T15:53:33.455Z,23.77
2022-12-01T15:56:02.509Z,22.13
2022-12-01T15:58:32.975Z,22.73
2022-12-01T16:01:01.234Z,22.13
2022-12-01T16:03:28.651Z,25.60
2022-12-01T16:05:56.107Z,23.08
2022-12-01T16:08:24.674Z,22.88
2022-12-01T16:11:12.311Z,24.50
2022-12-01T16:13:49.135Z,23.35
2022-12-01T16:16:38.928Z,22.42
2022-12-01T16:19:08.929Z,23.70
2022-12-01T16:21:55.357Z,24.38
2022-12-01T16:24:36.316Z,24.90
2022-12-01T16:27:05.694Z,26.95
2022-12-01T16:30:06.508Z,25.13
2022-12-01T16:32:33.877Z,22.45
2022-12-01T16:35:01.825Z,22.38
2022-12-01T16:37:29.186Z,22.55
2022-12-01T16:39:56.651Z,23.95
2022-12-01T16:42:23.867Z,24.27
2022-12-01T16:44:51.685Z,84.63
2022-12-01T16:47:23.896Z,31.23
2022-12-01T16:49:51.913Z,25.40
2022-12-01T16:55:32.958Z,25.02
2022-12-01T16:58:00.255Z,25.50
2022-12-01T17:00:29.335Z,38.65
2022-12-01T17:02:57.158Z,32.00
2022-12-01T17:05:24.522Z,33.72
2022-12-01T17:07:51.797Z,33.67
2022-12-01T17:10:20.864Z,27.13
2022-12-01T17:12:48.187Z,28.92
2022-12-01T17:15:15.610Z,29.50
2022-12-01T17:17:43.020Z,30.58
2022-12-01T17:20:10.879Z,31.15
2022-12-01T17:22:38.195Z,26.50
2022-12-01T17:25:05.956Z,26.92
2022-12-01T17:27:33.401Z,27.17
2022-12-01T17:30:02.324Z,29.75
2022-12-01T17:32:29.692Z,30.40
2022-12-01T17:34:57.012Z,26.90
2022-12-01T17:37:24.343Z,25.08
2022-12-01T17:39:51.604Z,27.08
2022-12-01T17:42:18.906Z,25.52
2022-12-01T17:44:46.192Z,26.83
2022-12-01T17:47:13.654Z,25.50
2022-12-01T17:49:40.981Z,25.85
2022-12-01T17:52:08.406Z,26.20
2022-12-01T17:54:35.742Z,26.70
2022-12-01T17:57:03.055Z,26.73
2022-12-01T17:59:30.327Z,25.45
2022-12-01T18:01:57.691Z,27.05
2022-12-01T18:04:24.977Z,29.15
2022-12-01T18:06:54.293Z,26.75
2022-12-01T18:09:22.007Z,27.00
2022-12-01T18:11:49.545Z,31.08
2022-12-01T18:14:17.814Z,27.02
2022-12-01T18:16:45.435Z,25.55
2022-12-01T18:19:12.806Z,25.35
2022-12-01T18:21:40.382Z,25.42
2022-12-01T18:24:10.976Z,26.70
2022-12-01T18:26:39.964Z,26.58
2022-12-01T18:29:11.858Z,26.88
2022-12-01T18:31:39.461Z,26.63
2022-12-01T18:34:07.549Z,24.90
2022-12-01T18:36:37.603Z,27.02
2022-12-01T18:39:05.708Z,27.50
2022-12-01T18:41:33.087Z,25.20
2022-12-01T18:44:00.444Z,24.77
2022-12-01T18:46:27.884Z,24.30
2022-12-01T18:49:00.840Z,24.25
2022-12-01T18:51:29.001Z,26.17
2022-12-01T18:53:57.280Z,24.60
2022-12-01T18:56:24.638Z,24.85
2022-12-01T18:59:00.154Z,24.00
2022-12-01T19:01:31.920Z,22.48
2022-12-01T19:03:59.711Z,23.65
2022-12-01T19:06:27.411Z,25.10
2022-12-01T19:08:55.090Z,23.90
2022-12-01T19:11:22.719Z,27.63
2022-12-01T19:13:50.108Z,26.17
2022-12-01T19:16:18.442Z,25.83
2022-12-01T19:18:45.986Z,24.45
2022-12-01T19:21:15.602Z,25.88
2022-12-01T19:23:43.784Z,24.65
2022-12-01T19:26:12.750Z,23.73
2022-12-01T19:28:42.108Z,22.55
2022-12-01T19:31:11.186Z,25.88
2022-12-01T19:33:38.687Z,24.80
2022-12-01T19:36:07.408Z,25.35
2022-12-01T19:38:34.845Z,25.27
2022-12-01T19:41:02.375Z,27.00
2022-12-01T19:43:29.768Z,26.15
2022-12-01T19:45:57.122Z,25.52
2022-12-01T19:48:24.451Z,23.85
2022-12-01T19:50:51.951Z,26.33
2022-12-01T19:53:19.261Z,26.42
2022-12-01T19:55:46.590Z,25.10
2022-12-01T19:58:13.877Z,23.73
2022-12-01T20:00:41.203Z,25.83
2022-12-01T20:03:08.516Z,24.90
2022-12-01T20:05:35.814Z,25.00
2022-12-01T20:08:03.619Z,23.83
2022-12-01T20:10:31.039Z,23.48
2022-12-01T20:12:58.440Z,23.83
2022-12-01T20:15:25.796Z,25.65
2022-12-01T20:17:53.908Z,24.85
2022-12-01T20:20:21.215Z,23.45
2022-12-01T20:22:48.470Z,25.45
2022-12-01T20:25:15.828Z,24.90
2022-12-01T20:27:43.340Z,24.25
2022-12-01T20:30:11.259Z,25.15
2022-12-01T20:32:38.582Z,25.42
2022-12-01T20:35:06.324Z,24.55
2022-12-01T20:37:33.607Z,25.05
2022-12-01T20:40:00.985Z,24.63
2022-12-01T20:42:28.302Z,23.08
2022-12-01T20:44:55.597Z,23.95
2022-12-01T20:47:22.906Z,25.35
2022-12-01T20:49:53.080Z,25.50
2022-12-01T20:52:24.181Z,26.08
2022-12-01T20:54:51.792Z,28.25
2022-12-01T20:57:19.336Z,25.33
2022-12-01T20:59:46.663Z,25.73
2022-12-01T21:02:13.997Z,25.52
2022-12-01T21:04:41.349Z,25.40
2022-12-01T21:07:08.690Z,25.80
2022-12-01T21:09:35.962Z,25.92
2022-12-01T21:12:22.044Z,25.80
2022-12-01T21:14:56.298Z,26.08
2022-12-01T21:17:35.570Z,26.73
2022-12-01T21:20:21.972Z,25.52
2022-12-01T21:22:49.935Z,25.52
2022-12-01T21:25:22.737Z,26.52
2022-12-01T21:27:50.197Z,26.02
2022-12-01T21:30:20.062Z,27.13
2022-12-01T21:32:47.774Z,26.23
2022-12-01T21:35:20.679Z,26.85
2022-12-01T21:37:48.413Z,26.08
2022-12-01T21:40:23.783Z,25.17
2022-12-01T21:42:51.507Z,25.85
2022-12-01T21:45:24.535Z,26.55
2022-12-01T21:47:52.020Z,27.00
2022-12-01T21:50:23.415Z,24.88
2022-12-01T21:52:50.836Z,25.42
2022-12-01T21:55:18.104Z,25.80
2022-12-01T21:57:48.670Z,25.70
2022-12-01T22:00:32.790Z,25.55
2022-12-01T22:03:09.374Z,25.23
2022-12-01T22:05:40.779Z,24.42
2022-12-01T22:08:13.855Z,24.85
2022-12-01T22:11:09.764Z,24.98
2022-12-01T22:14:14.051Z,24.73
2022-12-01T22:16:45.781Z,25.58
2022-12-01T22:19:16.076Z,26.52
2022-12-01T22:22:01.895Z,25.58
2022-12-01T22:24:43.245Z,25.80
2022-12-01T22:27:25.648Z,26.45
2022-12-01T22:30:01.789Z,25.95
2022-12-01T22:32:39.310Z,24.58
2022-12-01T22:35:26.740Z,26.38
2022-12-01T22:37:58.210Z,25.20
2022-12-01T22:40:48.420Z,24.83
2022-12-01T22:43:15.784Z,24.77
2022-12-01T22:45:49.389Z,23.80
2022-12-01T22:48:34.840Z,26.92
2022-12-01T22:51:25.085Z,24.20
2022-12-01T22:53:57.767Z,24.52
2022-12-01T22:56:35.559Z,23.73
2022-12-01T22:59:18.139Z,25.45
2022-12-01T23:01:48.516Z,25.73
2022-12-01T23:04:29.224Z,25.45
2022-12-01T23:07:15.065Z,24.83
2022-12-01T23:09:43.235Z,24.65
2022-12-01T23:12:10.511Z,25.08
2022-12-01T23:14:59.141Z,25.85
2022-12-01T23:17:30.811Z,26.33
2022-12-01T23:20:10.293Z,26.35
2022-12-01T23:22:38.138Z,25.70
2022-12-01T23:25:14.289Z,24.88
2022-12-01T23:27:42.151Z,26.35
2022-12-01T23:30:10.258Z,26.50
2022-12-01T23:32:37.575Z,26.30
2022-12-01T23:35:05.990Z,26.35
2022-12-01T23:37:34.160Z,25.92
2022-12-01T23:40:02.450Z,26.83
2022-12-01T23:42:29.800Z,26.40
2022-12-01T23:44:57.123Z,27.75
2022-12-01T23:47:27.786Z,26.45
2022-12-01T23:50:00.098Z,25.95
2022-12-01T23:52:32.651Z,26.95
2022-12-01T23:55:00.084Z,25.73
2022-12-01T23:57:27.393Z,25.30
2022-12-01T23:59:59.751Z,26.33
